createdAt,value
2023-05-03T00:11:20.461Z,11.70
2023-05-03T00:37:24.419Z,11.30
2023-05-03T00:40:12.701Z,11.20
2023-05-03T00:43:06.211Z,11.20
2023-05-03T00:45:57.249Z,11.20
2023-05-03T00:49:03.318Z,11.10
2023-05-03T00:51:55.725Z,11.20
2023-05-03T00:54:39.861Z,11.10
2023-05-03T00:57:19.053Z,11.10
2023-05-03T01:00:16.060Z,11.10
2023-05-03T01:09:54.980Z,11.10
2023-05-03T01:19:52.743Z,11.00
2023-05-03T03:17:48.369Z,8.70
2023-05-03T03:36:24.115Z,8.20
2023-05-03T04:02:39.740Z,8.20
2023-05-03T04:05:42.588Z,8.20
2023-05-03T04:33:10.655Z,9.70
2023-05-03T04:35:57.819Z,9.80
2023-05-03T05:40:43.181Z,12.70
2023-05-03T05:44:01.038Z,12.40
2023-05-03T05:46:51.473Z,12.10
2023-05-03T05:53:01.288Z,11.60
2023-05-03T06:02:04.655Z,11.20
2023-05-03T06:04:45.622Z,11.10
2023-05-03T06:13:53.805Z,12.40
2023-05-03T09:04:12.336Z,16.50
2023-05-03T19:09:58.341Z,12.30
2023-05-03T19:13:17.738Z,12.30
2023-05-03T19:16:56.863Z,12.20
2023-05-03T19:20:00.470Z,12.10
2023-05-03T19:29:42.831Z,11.90
2023-05-03T19:35:57.822Z,11.70
2023-05-03T19:39:10.562Z,11.70
2023-05-03T19:42:09.775Z,11.50
2023-05-03T19:45:07.039Z,11.50
2023-05-03T19:47:51.479Z,11.40
2023-05-03T19:50:38.740Z,11.30
2023-05-03T19:54:05.830Z,11.20
2023-05-03T19:56:59.944Z,11.10
2023-05-03T19:59:41.597Z,11.10
2023-05-03T20:02:22.645Z,11.00
2023-05-03T20:05:07.763Z,10.80
2023-05-03T20:07:51.478Z,10.70
2023-05-03T20:10:37.140Z,10.60
2023-05-03T20:13:18.454Z,10.50
2023-05-03T20:16:00.295Z,10.40
2023-05-03T20:18:39.836Z,10.30
2023-05-03T20:21:20.890Z,10.40
2023-05-03T20:24:05.471Z,10.20
2023-05-03T20:26:44.182Z,10.10
2023-05-03T20:29:24.472Z,10.00
2023-05-03T20:32:15.748Z,9.90
2023-05-03T20:35:02.779Z,9.90
2023-05-03T20:37:55.236Z,9.80
2023-05-03T20:44:12.165Z,9.60
2023-05-03T20:46:57.631Z,9.50
2023-05-03T20:49:49.649Z,9.40
2023-05-03T20:52:46.405Z,9.30
2023-05-03T20:55:26.755Z,9.30
2023-05-03T20:58:23.377Z,9.20
2023-05-03T21:14:06.551Z,9.00
2023-05-03T21:16:43.717Z,8.90
2023-05-03T21:19:31.645Z,8.80
2023-05-03T21:22:19.685Z,8.70
2023-05-03T21:25:20.274Z,8.60
2023-05-03T21:28:05.531Z,8.60
2023-05-03T21:30:48.939Z,8.50
2023-05-03T21:33:35.291Z,8.40
2023-05-03T21:36:28.709Z,8.30
2023-05-03T21:39:17.708Z,8.30
2023-05-03T21:41:59.055Z,8.30
2023-05-03T21:44:43.680Z,8.20
2023-05-03T21:47:35.882Z,8.20
2023-05-03T21:50:24.268Z,8.20
2023-05-03T21:53:22.453Z,8.10
2023-05-03T21:56:05.360Z,8.10
2023-05-03T21:58:55.783Z,8.00
2023-05-03T22:01:34.756Z,7.90
2023-05-03T22:04:47.439Z,7.80
2023-05-03T22:07:34.592Z,7.70
2023-05-03T22:10:17.886Z,7.70
2023-05-03T22:13:03.086Z,7.50
2023-05-03T22:15:43.166Z,7.60
2023-05-03T22:18:18.691Z,7.60
2023-05-03T22:21:09.780Z,7.50
2023-05-03T22:23:54.264Z,7.50
2023-05-03T22:26:30.537Z,7.40
2023-05-03T22:29:13.396Z,7.40
2023-05-03T22:32:00.074Z,7.40
2023-05-03T22:34:45.788Z,7.30
2023-05-03T22:37:27.693Z,7.30
2023-05-03T22:40:08.763Z,7.30
2023-05-03T22:42:49.451Z,7.20
2023-05-03T22:45:27.878Z,7.20
2023-05-03T22:48:18.430Z,7.10
2023-05-03T22:51:01.930Z,7.00
2023-05-03T22:53:58.569Z,7.10
2023-05-03T22:56:41.125Z,7.00
2023-05-03T22:59:33.052Z,7.00
2023-05-03T23:02:10.355Z,6.90
2023-05-03T23:04:49.107Z,6.90
2023-05-03T23:07:25.489Z,6.80
2023-05-03T23:10:08.344Z,6.80
2023-05-03T23:12:43.359Z,6.80
2023-05-03T23:15:25.899Z,6.70
2023-05-03T23:18:06.618Z,6.70
2023-05-03T23:20:42.466Z,6.50
2023-05-03T23:23:26.004Z,6.60
2023-05-03T23:26:03.433Z,6.60
2023-05-03T23:28:40.350Z,6.50
2023-05-03T23:31:24.448Z,6.40
2023-05-03T23:34:13.905Z,6.40
2023-05-03T23:36:59.530Z,6.40
2023-05-03T23:39:57.955Z,6.40
2023-05-03T23:42:34.129Z,6.30
2023-05-03T23:45:15.490Z,6.30
2023-05-03T23:48:00.655Z,6.30
2023-05-03T23:50:40.466Z,6.20
2023-05-03T23:53:21.938Z,6.10
2023-05-03T23:56:01.635Z,6.00
2023-05-03T23:58:42.064Z,6.00
